sensor_id;sensor_type;location;lat;lon;timestamp;P1;durP1;ratioP1;P2;durP2;ratioP2
39750;SDS011;37579;51.074;17.004;2022-12-20T00:00:50;12.32;;;6.78;;
39750;SDS011;37579;51.074;17.004;2022-12-20T00:03:16;10.90;;;6.93;;
39750;SDS011;37579;51.074;17.004;2022-12-20T00:05:42;11.35;;;6.45;;
39750;SDS011;37579;51.074;17.004;2022-12-20T00:08:08;11.30;;;6.70;;
39750;SDS011;37579;51.074;17.004;2022-12-20T00:10:35;10.07;;;6.70;;
39750;SDS011;37579;51.074;17.004;2022-12-20T00:13:01;10.38;;;6.45;;
39750;SDS011;37579;51.074;17.004;2022-12-20T00:15:27;9.85;;;6.18;;
39750;SDS011;37579;51.074;17.004;2022-12-20T00:17:53;11.25;;;6.47;;
39750;SDS011;37579;51.074;17.004;2022-12-20T00:20:19;10.45;;;5.85;;
39750;SDS011;37579;51.074;17.004;2022-12-20T00:22:44;8.80;;;5.75;;
39750;SDS011;37579;51.074;17.004;2022-12-20T00:25:10;9.88;;;5.70;;
39750;SDS011;37579;51.074;17.004;2022-12-20T00:27:36;10.20;;;5.40;;
39750;SDS011;37579;51.074;17.004;2022-12-20T00:30:02;8.95;;;5.68;;
39750;SDS011;37579;51.074;17.004;2022-12-20T00:32:30;8.48;;;5.20;;
39750;SDS011;37579;51.074;17.004;2022-12-20T00:34:55;9.63;;;5.85;;
39750;SDS011;37579;51.074;17.004;2022-12-20T00:37:23;8.48;;;5.28;;
39750;SDS011;37579;51.074;17.004;2022-12-20T00:39:49;7.50;;;4.85;;
39750;SDS011;37579;51.074;17.004;2022-12-20T00:42:14;8.35;;;5.38;;
39750;SDS011;37579;51.074;17.004;2022-12-20T00:44:40;7.72;;;4.70;;
39750;SDS011;37579;51.074;17.004;2022-12-20T00:47:06;7.57;;;4.70;;
39750;SDS011;37579;51.074;17.004;2022-12-20T00:49:32;8.02;;;4.07;;
39750;SDS011;37579;51.074;17.004;2022-12-20T00:51:57;8.63;;;5.03;;
39750;SDS011;37579;51.074;17.004;2022-12-20T00:54:23;6.45;;;4.07;;
39750;SDS011;37579;51.074;17.004;2022-12-20T00:56:49;6.55;;;4.55;;
39750;SDS011;37579;51.074;17.004;2022-12-20T00:59:15;6.35;;;4.10;;
39750;SDS011;37579;51.074;17.004;2022-12-20T01:01:41;7.05;;;4.70;;
39750;SDS011;37579;51.074;17.004;2022-12-20T01:04:06;6.40;;;4.13;;
39750;SDS011;37579;51.074;17.004;2022-12-20T01:06:33;5.82;;;4.05;;
39750;SDS011;37579;51.074;17.004;2022-12-20T01:08:59;7.90;;;4.38;;
39750;SDS011;37579;51.074;17.004;2022-12-20T01:11:32;7.03;;;4.28;;
39750;SDS011;37579;51.074;17.004;2022-12-20T01:14:00;6.18;;;4.40;;
39750;SDS011;37579;51.074;17.004;2022-12-20T01:16:39;6.75;;;4.18;;
39750;SDS011;37579;51.074;17.004;2022-12-20T01:19:06;7.78;;;3.90;;
39750;SDS011;37579;51.074;17.004;2022-12-20T01:21:34;5.60;;;3.63;;
39750;SDS011;37579;51.074;17.004;2022-12-20T01:24:00;6.95;;;3.92;;
39750;SDS011;37579;51.074;17.004;2022-12-20T01:26:27;6.78;;;4.55;;
39750;SDS011;37579;51.074;17.004;2022-12-20T01:28:55;6.45;;;4.22;;
39750;SDS011;37579;51.074;17.004;2022-12-20T01:31:22;4.95;;;3.53;;
39750;SDS011;37579;51.074;17.004;2022-12-20T01:33:49;8.20;;;4.05;;
39750;SDS011;37579;51.074;17.004;2022-12-20T01:36:25;7.30;;;4.20;;
39750;SDS011;37579;51.074;17.004;2022-12-20T01:38:58;7.80;;;4.30;;
39750;SDS011;37579;51.074;17.004;2022-12-20T01:41:30;5.82;;;3.80;;
39750;SDS011;37579;51.074;17.004;2022-12-20T01:43:57;5.55;;;3.97;;
39750;SDS011;37579;51.074;17.004;2022-12-20T01:46:27;7.18;;;4.45;;
39750;SDS011;37579;51.074;17.004;2022-12-20T01:48:56;6.63;;;3.97;;
39750;SDS011;37579;51.074;17.004;2022-12-20T01:51:23;5.97;;;3.83;;
39750;SDS011;37579;51.074;17.004;2022-12-20T01:53:54;6.45;;;3.55;;
39750;SDS011;37579;51.074;17.004;2022-12-20T01:56:24;6.07;;;4.07;;
39750;SDS011;37579;51.074;17.004;2022-12-20T01:58:50;4.70;;;3.55;;
39750;SDS011;37579;51.074;17.004;2022-12-20T02:01:20;5.70;;;3.58;;
39750;SDS011;37579;51.074;17.004;2022-12-20T02:03:47;5.05;;;3.75;;
39750;SDS011;37579;51.074;17.004;2022-12-20T02:06:18;4.78;;;3.20;;
39750;SDS011;37579;51.074;17.004;2022-12-20T02:08:46;5.38;;;3.55;;
39750;SDS011;37579;51.074;17.004;2022-12-20T02:16:39;4.32;;;3.17;;
39750;SDS011;37579;51.074;17.004;2022-12-20T02:21:58;4.10;;;2.88;;
39750;SDS011;37579;51.074;17.004;2022-12-20T02:24:57;5.70;;;2.90;;
39750;SDS011;37579;51.074;17.004;2022-12-20T02:30:24;5.13;;;3.20;;
39750;SDS011;37579;51.074;17.004;2022-12-20T02:33:02;4.13;;;2.90;;
39750;SDS011;37579;51.074;17.004;2022-12-20T02:35:31;5.07;;;3.10;;
39750;SDS011;37579;51.074;17.004;2022-12-20T02:38:02;4.30;;;2.95;;
39750;SDS011;37579;51.074;17.004;2022-12-20T02:40:33;3.53;;;2.88;;
39750;SDS011;37579;51.074;17.004;2022-12-20T02:43:04;3.65;;;2.50;;
39750;SDS011;37579;51.074;17.004;2022-12-20T02:45:53;4.40;;;2.78;;
39750;SDS011;37579;51.074;17.004;2022-12-20T02:48:21;4.30;;;2.85;;
39750;SDS011;37579;51.074;17.004;2022-12-20T02:50:50;3.60;;;2.85;;
39750;SDS011;37579;51.074;17.004;2022-12-20T02:53:19;3.63;;;2.70;;
39750;SDS011;37579;51.074;17.004;2022-12-20T02:56:00;4.03;;;2.67;;
39750;SDS011;37579;51.074;17.004;2022-12-20T02:58:29;3.55;;;2.70;;
39750;SDS011;37579;51.074;17.004;2022-12-20T03:00:58;3.60;;;2.60;;
39750;SDS011;37579;51.074;17.004;2022-12-20T03:03:31;5.00;;;3.07;;
39750;SDS011;37579;51.074;17.004;2022-12-20T03:05:58;4.10;;;2.65;;
39750;SDS011;37579;51.074;17.004;2022-12-20T03:08:24;4.10;;;2.50;;
39750;SDS011;37579;51.074;17.004;2022-12-20T03:10:51;4.07;;;2.78;;
39750;SDS011;37579;51.074;17.004;2022-12-20T03:13:18;3.47;;;2.50;;
39750;SDS011;37579;51.074;17.004;2022-12-20T03:15:50;3.60;;;2.55;;
39750;SDS011;37579;51.074;17.004;2022-12-20T03:18:17;3.78;;;2.60;;
39750;SDS011;37579;51.074;17.004;2022-12-20T03:20:43;3.97;;;2.20;;
39750;SDS011;37579;51.074;17.004;2022-12-20T03:23:09;4.03;;;2.65;;
39750;SDS011;37579;51.074;17.004;2022-12-20T03:25:35;4.03;;;3.00;;
39750;SDS011;37579;51.074;17.004;2022-12-20T03:28:02;3.58;;;2.63;;
39750;SDS011;37579;51.074;17.004;2022-12-20T03:30:28;3.10;;;2.20;;
39750;SDS011;37579;51.074;17.004;2022-12-20T03:32:55;3.72;;;2.83;;
39750;SDS011;37579;51.074;17.004;2022-12-20T03:35:21;3.08;;;2.13;;
39750;SDS011;37579;51.074;17.004;2022-12-20T03:37:47;3.28;;;2.30;;
39750;SDS011;37579;51.074;17.004;2022-12-20T03:40:13;3.28;;;2.38;;
39750;SDS011;37579;51.074;17.004;2022-12-20T03:42:40;2.90;;;2.10;;
39750;SDS011;37579;51.074;17.004;2022-12-20T03:45:06;3.17;;;2.47;;
39750;SDS011;37579;51.074;17.004;2022-12-20T03:47:32;3.95;;;2.58;;
39750;SDS011;37579;51.074;17.004;2022-12-20T03:49:59;3.30;;;2.50;;
39750;SDS011;37579;51.074;17.004;2022-12-20T03:52:29;2.95;;;2.40;;
39750;SDS011;37579;51.074;17.004;2022-12-20T03:54:55;2.95;;;2.30;;
39750;SDS011;37579;51.074;17.004;2022-12-20T03:57:27;3.67;;;2.45;;
39750;SDS011;37579;51.074;17.004;2022-12-20T03:59:54;3.45;;;2.38;;
39750;SDS011;37579;51.074;17.004;2022-12-20T04:02:21;3.28;;;2.53;;
39750;SDS011;37579;51.074;17.004;2022-12-20T04:04:48;3.50;;;2.45;;
39750;SDS011;37579;51.074;17.004;2022-12-20T04:07:13;4.30;;;2.45;;
39750;SDS011;37579;51.074;17.004;2022-12-20T04:09:43;3.53;;;2.55;;
39750;SDS011;37579;51.074;17.004;2022-12-20T04:12:11;3.83;;;2.70;;
39750;SDS011;37579;51.074;17.004;2022-12-20T04:14:38;3.03;;;2.35;;
39750;SDS011;37579;51.074;17.004;2022-12-20T04:17:04;3.70;;;2.33;;
39750;SDS011;37579;51.074;17.004;2022-12-20T04:19:31;3.50;;;2.17;;
39750;SDS011;37579;51.074;17.004;2022-12-20T04:21:57;3.22;;;2.40;;
39750;SDS011;37579;51.074;17.004;2022-12-20T04:24:26;3.42;;;2.42;;
39750;SDS011;37579;51.074;17.004;2022-12-20T04:27:10;2.83;;;1.98;;
39750;SDS011;37579;51.074;17.004;2022-12-20T04:29:36;2.72;;;2.15;;
39750;SDS011;37579;51.074;17.004;2022-12-20T04:32:04;3.13;;;2.25;;
39750;SDS011;37579;51.074;17.004;2022-12-20T04:34:30;3.00;;;2.30;;
39750;SDS011;37579;51.074;17.004;2022-12-20T04:36:56;2.97;;;2.58;;
39750;SDS011;37579;51.074;17.004;2022-12-20T04:39:32;3.63;;;2.70;;
39750;SDS011;37579;51.074;17.004;2022-12-20T04:42:12;3.22;;;2.33;;
39750;SDS011;37579;51.074;17.004;2022-12-20T04:44:38;3.28;;;2.42;;
39750;SDS011;37579;51.074;17.004;2022-12-20T04:47:05;2.50;;;1.98;;
39750;SDS011;37579;51.074;17.004;2022-12-20T04:49:31;2.80;;;2.10;;
39750;SDS011;37579;51.074;17.004;2022-12-20T04:51:56;2.92;;;2.00;;
39750;SDS011;37579;51.074;17.004;2022-12-20T04:54:43;2.25;;;1.73;;
39750;SDS011;37579;51.074;17.004;2022-12-20T04:57:14;2.97;;;2.00;;
39750;SDS011;37579;51.074;17.004;2022-12-20T04:59:40;3.47;;;2.45;;
39750;SDS011;37579;51.074;17.004;2022-12-20T05:02:06;2.90;;;1.95;;
39750;SDS011;37579;51.074;17.004;2022-12-20T05:04:43;3.65;;;2.55;;
39750;SDS011;37579;51.074;17.004;2022-12-20T05:07:09;2.85;;;1.98;;
39750;SDS011;37579;51.074;17.004;2022-12-20T05:12:08;2.65;;;1.92;;
39750;SDS011;37579;51.074;17.004;2022-12-20T05:14:34;2.67;;;2.17;;
39750;SDS011;37579;51.074;17.004;2022-12-20T05:17:00;2.80;;;2.10;;
39750;SDS011;37579;51.074;17.004;2022-12-20T05:19:27;2.67;;;2.03;;
39750;SDS011;37579;51.074;17.004;2022-12-20T05:21:53;2.40;;;1.83;;
39750;SDS011;37579;51.074;17.004;2022-12-20T05:24:40;2.72;;;2.08;;
39750;SDS011;37579;51.074;17.004;2022-12-20T05:27:29;2.35;;;1.98;;
39750;SDS011;37579;51.074;17.004;2022-12-20T05:29:55;2.35;;;1.90;;
39750;SDS011;37579;51.074;17.004;2022-12-20T05:32:22;2.42;;;1.80;;
39750;SDS011;37579;51.074;17.004;2022-12-20T05:34:49;2.40;;;1.92;;
39750;SDS011;37579;51.074;17.004;2022-12-20T05:37:16;2.10;;;1.83;;
39750;SDS011;37579;51.074;17.004;2022-12-20T05:39:43;2.25;;;1.77;;
39750;SDS011;37579;51.074;17.004;2022-12-20T05:42:15;2.60;;;1.73;;
39750;SDS011;37579;51.074;17.004;2022-12-20T05:44:41;2.58;;;1.98;;
39750;SDS011;37579;51.074;17.004;2022-12-20T05:47:07;2.53;;;2.10;;
39750;SDS011;37579;51.074;17.004;2022-12-20T05:49:35;3.05;;;2.10;;
39750;SDS011;37579;51.074;17.004;2022-12-20T05:52:03;2.38;;;1.75;;
39750;SDS011;37579;51.074;17.004;2022-12-20T05:54:30;2.10;;;1.65;;
39750;SDS011;37579;51.074;17.004;2022-12-20T05:57:06;3.17;;;1.65;;
39750;SDS011;37579;51.074;17.004;2022-12-20T05:59:38;2.53;;;2.00;;
39750;SDS011;37579;51.074;17.004;2022-12-20T06:02:06;4.32;;;2.50;;
39750;SDS011;37579;51.074;17.004;2022-12-20T06:04:36;2.63;;;2.13;;
39750;SDS011;37579;51.074;17.004;2022-12-20T06:07:09;3.03;;;2.25;;
39750;SDS011;37579;51.074;17.004;2022-12-20T06:09:35;3.00;;;2.28;;
39750;SDS011;37579;51.074;17.004;2022-12-20T06:12:08;3.30;;;2.42;;
39750;SDS011;37579;51.074;17.004;2022-12-20T06:14:34;2.95;;;2.40;;
39750;SDS011;37579;51.074;17.004;2022-12-20T06:17:00;3.58;;;2.10;;
39750;SDS011;37579;51.074;17.004;2022-12-20T06:19:26;3.10;;;2.60;;
39750;SDS011;37579;51.074;17.004;2022-12-20T06:21:55;2.55;;;2.10;;
39750;SDS011;37579;51.074;17.004;2022-12-20T06:24:35;4.93;;;2.63;;
39750;SDS011;37579;51.074;17.004;2022-12-20T06:27:02;3.30;;;2.40;;
39750;SDS011;37579;51.074;17.004;2022-12-20T06:29:28;4.47;;;2.50;;
39750;SDS011;37579;51.074;17.004;2022-12-20T06:32:02;3.70;;;2.40;;
39750;SDS011;37579;51.074;17.004;2022-12-20T06:34:30;3.22;;;2.45;;
39750;SDS011;37579;51.074;17.004;2022-12-20T06:36:56;4.15;;;2.30;;
39750;SDS011;37579;51.074;17.004;2022-12-20T06:39:25;4.07;;;2.55;;
39750;SDS011;37579;51.074;17.004;2022-12-20T06:42:17;3.63;;;2.50;;
39750;SDS011;37579;51.074;17.004;2022-12-20T06:44:44;3.10;;;2.42;;
39750;SDS011;37579;51.074;17.004;2022-12-20T06:47:10;3.45;;;2.30;;
39750;SDS011;37579;51.074;17.004;2022-12-20T06:49:36;3.05;;;2.53;;
39750;SDS011;37579;51.074;17.004;2022-12-20T06:52:08;3.57;;;2.10;;
39750;SDS011;37579;51.074;17.004;2022-12-20T06:54:43;2.80;;;2.20;;
39750;SDS011;37579;51.074;17.004;2022-12-20T06:57:11;3.15;;;2.38;;
39750;SDS011;37579;51.074;17.004;2022-12-20T06:59:37;2.65;;;2.30;;
39750;SDS011;37579;51.074;17.004;2022-12-20T07:02:02;2.50;;;2.10;;
39750;SDS011;37579;51.074;17.004;2022-12-20T07:04:28;4.00;;;2.42;;
39750;SDS011;37579;51.074;17.004;2022-12-20T07:06:54;5.10;;;2.55;;
39750;SDS011;37579;51.074;17.004;2022-12-20T07:09:21;3.63;;;2.38;;
39750;SDS011;37579;51.074;17.004;2022-12-20T07:11:47;2.78;;;2.10;;
39750;SDS011;37579;51.074;17.004;2022-12-20T07:14:13;8.52;;;2.92;;
39750;SDS011;37579;51.074;17.004;2022-12-20T07:16:39;3.05;;;2.42;;
39750;SDS011;37579;51.074;17.004;2022-12-20T07:19:14;3.20;;;2.22;;
39750;SDS011;37579;51.074;17.004;2022-12-20T07:21:40;2.63;;;2.20;;
39750;SDS011;37579;51.074;17.004;2022-12-20T07:24:07;3.90;;;2.72;;
39750;SDS011;37579;51.074;17.004;2022-12-20T07:26:33;2.85;;;2.25;;
39750;SDS011;37579;51.074;17.004;2022-12-20T07:28:59;2.80;;;2.33;;
39750;SDS011;37579;51.074;17.004;2022-12-20T07:31:25;4.63;;;2.50;;
39750;SDS011;37579;51.074;17.004;2022-12-20T07:33:50;4.68;;;2.58;;
39750;SDS011;37579;51.074;17.004;2022-12-20T07:36:16;4.00;;;1.98;;
39750;SDS011;37579;51.074;17.004;2022-12-20T07:38:42;5.15;;;2.88;;
39750;SDS011;37579;51.074;17.004;2022-12-20T07:41:11;6.07;;;2.67;;
39750;SDS011;37579;51.074;17.004;2022-12-20T07:43:39;3.88;;;2.28;;
39750;SDS011;37579;51.074;17.004;2022-12-20T07:46:05;4.28;;;2.28;;
39750;SDS011;37579;51.074;17.004;2022-12-20T07:48:31;3.92;;;2.75;;
39750;SDS011;37579;51.074;17.004;2022-12-20T07:51:00;4.70;;;2.65;;
39750;SDS011;37579;51.074;17.004;2022-12-20T07:53:30;3.72;;;2.53;;
39750;SDS011;37579;51.074;17.004;2022-12-20T07:55:58;4.00;;;2.72;;
39750;SDS011;37579;51.074;17.004;2022-12-20T07:58:26;3.42;;;2.80;;
39750;SDS011;37579;51.074;17.004;2022-12-20T08:00:53;2.75;;;2.17;;
39750;SDS011;37579;51.074;17.004;2022-12-20T08:03:20;3.55;;;2.75;;
39750;SDS011;37579;51.074;17.004;2022-12-20T08:05:52;4.65;;;2.90;;
39750;SDS011;37579;51.074;17.004;2022-12-20T08:08:22;3.38;;;2.80;;
39750;SDS011;37579;51.074;17.004;2022-12-20T08:10:48;3.25;;;2.35;;
39750;SDS011;37579;51.074;17.004;2022-12-20T08:13:14;3.58;;;2.53;;
39750;SDS011;37579;51.074;17.004;2022-12-20T08:15:41;3.53;;;2.20;;
39750;SDS011;37579;51.074;17.004;2022-12-20T08:18:06;3.42;;;2.63;;
39750;SDS011;37579;51.074;17.004;2022-12-20T08:20:32;4.15;;;2.33;;
39750;SDS011;37579;51.074;17.004;2022-12-20T08:22:58;4.20;;;2.42;;
39750;SDS011;37579;51.074;17.004;2022-12-20T08:25:24;3.47;;;2.20;;
39750;SDS011;37579;51.074;17.004;2022-12-20T08:27:50;5.57;;;2.60;;
39750;SDS011;37579;51.074;17.004;2022-12-20T08:30:16;3.35;;;2.70;;
39750;SDS011;37579;51.074;17.004;2022-12-20T08:32:42;3.92;;;2.65;;
39750;SDS011;37579;51.074;17.004;2022-12-20T08:35:08;3.72;;;2.83;;
39750;SDS011;37579;51.074;17.004;2022-12-20T08:37:34;5.68;;;2.80;;
39750;SDS011;37579;51.074;17.004;2022-12-20T08:39:59;3.17;;;2.67;;
39750;SDS011;37579;51.074;17.004;2022-12-20T08:42:26;4.22;;;3.17;;
39750;SDS011;37579;51.074;17.004;2022-12-20T08:44:52;6.63;;;3.40;;
39750;SDS011;37579;51.074;17.004;2022-12-20T08:47:17;4.72;;;3.20;;
39750;SDS011;37579;51.074;17.004;2022-12-20T08:49:43;5.18;;;3.30;;
39750;SDS011;37579;51.074;17.004;2022-12-20T08:52:09;4.40;;;3.35;;
39750;SDS011;37579;51.074;17.004;2022-12-20T08:54:35;4.78;;;3.30;;
39750;SDS011;37579;51.074;17.004;2022-12-20T08:57:00;4.50;;;3.40;;
39750;SDS011;37579;51.074;17.004;2022-12-20T08:59:26;5.95;;;2.90;;
39750;SDS011;37579;51.074;17.004;2022-12-20T09:01:52;6.00;;;3.03;;
39750;SDS011;37579;51.074;17.004;2022-12-20T09:04:19;4.65;;;3.00;;
39750;SDS011;37579;51.074;17.004;2022-12-20T09:06:45;4.70;;;3.42;;
39750;SDS011;37579;51.074;17.004;2022-12-20T09:09:11;3.90;;;3.08;;
39750;SDS011;37579;51.074;17.004;2022-12-20T09:11:37;4.43;;;3.22;;
39750;SDS011;37579;51.074;17.004;2022-12-20T09:14:03;5.10;;;2.97;;
39750;SDS011;37579;51.074;17.004;2022-12-20T09:16:29;4.18;;;3.10;;
39750;SDS011;37579;51.074;17.004;2022-12-20T09:18:57;4.28;;;2.88;;
39750;SDS011;37579;51.074;17.004;2022-12-20T09:21:24;4.07;;;2.60;;
39750;SDS011;37579;51.074;17.004;2022-12-20T09:23:51;3.83;;;2.72;;
39750;SDS011;37579;51.074;17.004;2022-12-20T09:26:19;3.92;;;2.85;;
39750;SDS011;37579;51.074;17.004;2022-12-20T09:28:46;4.65;;;3.20;;
39750;SDS011;37579;51.074;17.004;2022-12-20T09:31:14;3.40;;;2.75;;
39750;SDS011;37579;51.074;17.004;2022-12-20T09:33:42;5.82;;;3.47;;
39750;SDS011;37579;51.074;17.004;2022-12-20T09:36:12;4.85;;;3.22;;
39750;SDS011;37579;51.074;17.004;2022-12-20T09:38:41;4.30;;;3.20;;
39750;SDS011;37579;51.074;17.004;2022-12-20T09:41:07;5.72;;;3.78;;
39750;SDS011;37579;51.074;17.004;2022-12-20T09:43:42;4.18;;;3.28;;
39750;SDS011;37579;51.074;17.004;2022-12-20T09:46:09;5.57;;;3.17;;
39750;SDS011;37579;51.074;17.004;2022-12-20T09:48:39;6.60;;;3.47;;
39750;SDS011;37579;51.074;17.004;2022-12-20T10:01:22;7.13;;;4.18;;
39750;SDS011;37579;51.074;17.004;2022-12-20T10:03:49;9.63;;;3.67;;
39750;SDS011;37579;51.074;17.004;2022-12-20T10:09:12;6.95;;;3.72;;
39750;SDS011;37579;51.074;17.004;2022-12-20T10:14:40;5.40;;;3.58;;
39750;SDS011;37579;51.074;17.004;2022-12-20T10:17:16;5.78;;;3.95;;
39750;SDS011;37579;51.074;17.004;2022-12-20T10:20:37;7.03;;;3.35;;
39750;SDS011;37579;51.074;17.004;2022-12-20T10:23:19;5.38;;;3.45;;
39750;SDS011;37579;51.074;17.004;2022-12-20T10:26:03;5.38;;;3.13;;
39750;SDS011;37579;51.074;17.004;2022-12-20T10:28:34;4.72;;;3.42;;
39750;SDS011;37579;51.074;17.004;2022-12-20T10:31:02;5.65;;;3.45;;
39750;SDS011;37579;51.074;17.004;2022-12-20T10:33:31;4.40;;;3.25;;
39750;SDS011;37579;51.074;17.004;2022-12-20T10:36:16;4.53;;;3.60;;
39750;SDS011;37579;51.074;17.004;2022-12-20T10:38:47;7.45;;;3.20;;
39750;SDS011;37579;51.074;17.004;2022-12-20T10:41:15;6.28;;;3.40;;
39750;SDS011;37579;51.074;17.004;2022-12-20T10:43:51;6.60;;;3.28;;
39750;SDS011;37579;51.074;17.004;2022-12-20T10:46:20;4.88;;;3.40;;
39750;SDS011;37579;51.074;17.004;2022-12-20T10:48:47;4.93;;;3.17;;
39750;SDS011;37579;51.074;17.004;2022-12-20T10:51:14;4.43;;;3.20;;
39750;SDS011;37579;51.074;17.004;2022-12-20T10:54:00;4.47;;;3.20;;
39750;SDS011;37579;51.074;17.004;2022-12-20T10:56:31;5.18;;;3.17;;
39750;SDS011;37579;51.074;17.004;2022-12-20T11:01:42;6.25;;;3.42;;
39750;SDS011;37579;51.074;17.004;2022-12-20T11:04:29;6.75;;;3.65;;
39750;SDS011;37579;51.074;17.004;2022-12-20T11:07:00;5.68;;;3.15;;
39750;SDS011;37579;51.074;17.004;2022-12-20T11:09:32;5.68;;;3.22;;
39750;SDS011;37579;51.074;17.004;2022-12-20T11:14:39;5.43;;;3.05;;
39750;SDS011;37579;51.074;17.004;2022-12-20T11:22:50;6.30;;;3.65;;
39750;SDS011;37579;51.074;17.004;2022-12-20T11:28:35;6.10;;;3.22;;
39750;SDS011;37579;51.074;17.004;2022-12-20T11:31:15;5.88;;;3.33;;
39750;SDS011;37579;51.074;17.004;2022-12-20T11:34:38;5.10;;;3.25;;
39750;SDS011;37579;51.074;17.004;2022-12-20T11:37:25;6.30;;;3.38;;
39750;SDS011;37579;51.074;17.004;2022-12-20T11:42:59;4.53;;;3.25;;
39750;SDS011;37579;51.074;17.004;2022-12-20T11:45:41;5.93;;;3.50;;
39750;SDS011;37579;51.074;17.004;2022-12-20T11:48:40;5.57;;;3.50;;
39750;SDS011;37579;51.074;17.004;2022-12-20T11:51:23;5.18;;;3.35;;
39750;SDS011;37579;51.074;17.004;2022-12-20T11:54:06;7.45;;;4.05;;
39750;SDS011;37579;51.074;17.004;2022-12-20T11:56:39;5.78;;;3.28;;
39750;SDS011;37579;51.074;17.004;2022-12-20T12:01:43;5.47;;;3.30;;
39750;SDS011;37579;51.074;17.004;2022-12-20T12:04:24;5.82;;;3.55;;
39750;SDS011;37579;51.074;17.004;2022-12-20T12:06:58;7.20;;;3.60;;
39750;SDS011;37579;51.074;17.004;2022-12-20T12:10:12;6.63;;;3.72;;
39750;SDS011;37579;51.074;17.004;2022-12-20T12:12:33;5.57;;;3.40;;
39750;SDS011;37579;51.074;17.004;2022-12-20T12:18:16;6.50;;;3.47;;
39750;SDS011;37579;51.074;17.004;2022-12-20T12:20:49;4.53;;;3.40;;
39750;SDS011;37579;51.074;17.004;2022-12-20T12:26:49;5.43;;;4.00;;
39750;SDS011;37579;51.074;17.004;2022-12-20T12:29:02;5.88;;;3.70;;
39750;SDS011;37579;51.074;17.004;2022-12-20T12:36:39;4.55;;;3.75;;
39750;SDS011;37579;51.074;17.004;2022-12-20T12:45:19;5.38;;;3.83;;
39750;SDS011;37579;51.074;17.004;2022-12-20T12:50:23;7.10;;;4.28;;
39750;SDS011;37579;51.074;17.004;2022-12-20T12:52:55;7.85;;;4.90;;
39750;SDS011;37579;51.074;17.004;2022-12-20T13:00:58;7.47;;;4.00;;
39750;SDS011;37579;51.074;17.004;2022-12-20T13:16:37;7.10;;;4.57;;
39750;SDS011;37579;51.074;17.004;2022-12-20T13:19:15;6.22;;;4.65;;
39750;SDS011;37579;51.074;17.004;2022-12-20T13:21:43;7.47;;;5.40;;
39750;SDS011;37579;51.074;17.004;2022-12-20T13:27:00;7.63;;;4.97;;
39750;SDS011;37579;51.074;17.004;2022-12-20T13:29:42;19.92;;;9.00;;
39750;SDS011;37579;51.074;17.004;2022-12-20T13:38:00;321.05;;;126.38;;
39750;SDS011;37579;51.074;17.004;2022-12-20T13:40:59;409.67;;;181.57;;
39750;SDS011;37579;51.074;17.004;2022-12-20T13:43:27;425.60;;;186.40;;
39750;SDS011;37579;51.074;17.004;2022-12-20T13:51:02;365.58;;;147.45;;
39750;SDS011;37579;51.074;17.004;2022-12-20T13:53:29;351.08;;;140.52;;
39750;SDS011;37579;51.074;17.004;2022-12-20T13:55:55;338.35;;;134.13;;
39750;SDS011;37579;51.074;17.004;2022-12-20T13:58:29;325.10;;;124.13;;
39750;SDS011;37579;51.074;17.004;2022-12-20T14:01:04;306.90;;;124.43;;
39750;SDS011;37579;51.074;17.004;2022-12-20T14:03:40;322.83;;;123.85;;
39750;SDS011;37579;51.074;17.004;2022-12-20T14:06:12;311.35;;;123.03;;
39750;SDS011;37579;51.074;17.004;2022-12-20T14:08:44;288.17;;;118.53;;
39750;SDS011;37579;51.074;17.004;2022-12-20T14:11:13;297.95;;;115.63;;
39750;SDS011;37579;51.074;17.004;2022-12-20T14:13:40;275.10;;;111.63;;
39750;SDS011;37579;51.074;17.004;2022-12-20T14:16:09;271.15;;;110.10;;
39750;SDS011;37579;51.074;17.004;2022-12-20T14:18:38;251.38;;;103.80;;
39750;SDS011;37579;51.074;17.004;2022-12-20T14:21:04;255.70;;;104.07;;
39750;SDS011;37579;51.074;17.004;2022-12-20T14:23:36;229.30;;;95.15;;
39750;SDS011;37579;51.074;17.004;2022-12-20T14:26:58;237.77;;;95.63;;
39750;SDS011;37579;51.074;17.004;2022-12-20T14:29:11;220.02;;;90.82;;
39750;SDS011;37579;51.074;17.004;2022-12-20T14:31:42;211.57;;;88.00;;
39750;SDS011;37579;51.074;17.004;2022-12-20T14:36:39;198.32;;;81.88;;
39750;SDS011;37579;51.074;17.004;2022-12-20T14:42:15;170.25;;;72.97;;
39750;SDS011;37579;51.074;17.004;2022-12-20T14:44:43;169.30;;;72.65;;
39750;SDS011;37579;51.074;17.004;2022-12-20T14:47:23;162.15;;;68.70;;
39750;SDS011;37579;51.074;17.004;2022-12-20T14:49:54;159.75;;;67.15;;
39750;SDS011;37579;51.074;17.004;2022-12-20T14:52:33;153.60;;;64.57;;
39750;SDS011;37579;51.074;17.004;2022-12-20T14:55:12;152.02;;;64.03;;
39750;SDS011;37579;51.074;17.004;2022-12-20T14:57:50;134.65;;;59.70;;
39750;SDS011;37579;51.074;17.004;2022-12-20T15:13:20;119.15;;;49.10;;
39750;SDS011;37579;51.074;17.004;2022-12-20T15:15:50;113.55;;;48.50;;
39750;SDS011;37579;51.074;17.004;2022-12-20T15:18:17;110.78;;;47.42;;
39750;SDS011;37579;51.074;17.004;2022-12-20T15:20:45;116.15;;;46.63;;
39750;SDS011;37579;51.074;17.004;2022-12-20T15:23:19;107.43;;;45.20;;
39750;SDS011;37579;51.074;17.004;2022-12-20T15:25:46;93.93;;;40.90;;
39750;SDS011;37579;51.074;17.004;2022-12-20T15:28:14;93.63;;;40.90;;
39750;SDS011;37579;51.074;17.004;2022-12-20T15:30:42;89.43;;;41.67;;
39750;SDS011;37579;51.074;17.004;2022-12-20T15:33:11;89.70;;;37.63;;
39750;SDS011;37579;51.074;17.004;2022-12-20T15:35:45;87.43;;;40.47;;
39750;SDS011;37579;51.074;17.004;2022-12-20T15:38:17;81.88;;;37.85;;
39750;SDS011;37579;51.074;17.004;2022-12-20T15:40:45;85.22;;;36.97;;
39750;SDS011;37579;51.074;17.004;2022-12-20T15:43:13;78.85;;;36.13;;
39750;SDS011;37579;51.074;17.004;2022-12-20T15:45:44;75.55;;;33.88;;
39750;SDS011;37579;51.074;17.004;2022-12-20T15:48:16;74.47;;;34.08;;
39750;SDS011;37579;51.074;17.004;2022-12-20T15:50:47;72.13;;;33.60;;
39750;SDS011;37579;51.074;17.004;2022-12-20T15:53:17;69.88;;;33.38;;
39750;SDS011;37579;51.074;17.004;2022-12-20T15:55:50;66.82;;;31.98;;
39750;SDS011;37579;51.074;17.004;2022-12-20T15:58:17;71.18;;;30.55;;
39750;SDS011;37579;51.074;17.004;2022-12-20T16:00:43;62.60;;;29.10;;
39750;SDS011;37579;51.074;17.004;2022-12-20T16:03:12;64.05;;;29.08;;
39750;SDS011;37579;51.074;17.004;2022-12-20T16:05:39;62.92;;;28.80;;
39750;SDS011;37579;51.074;17.004;2022-12-20T16:08:05;60.25;;;28.08;;
39750;SDS011;37579;51.074;17.004;2022-12-20T16:10:31;59.55;;;28.75;;
39750;SDS011;37579;51.074;17.004;2022-12-20T16:12:57;56.00;;;27.80;;
39750;SDS011;37579;51.074;17.004;2022-12-20T16:15:23;57.72;;;25.63;;
39750;SDS011;37579;51.074;17.004;2022-12-20T16:17:50;59.60;;;27.52;;
39750;SDS011;37579;51.074;17.004;2022-12-20T16:20:16;51.42;;;24.48;;
39750;SDS011;37579;51.074;17.004;2022-12-20T16:22:43;50.70;;;25.80;;
39750;SDS011;37579;51.074;17.004;2022-12-20T16:25:24;49.70;;;24.15;;
39750;SDS011;37579;51.074;17.004;2022-12-20T16:27:55;44.85;;;23.08;;
39750;SDS011;37579;51.074;17.004;2022-12-20T16:30:21;47.45;;;23.38;;
39750;SDS011;37579;51.074;17.004;2022-12-20T16:32:48;46.45;;;22.55;;
39750;SDS011;37579;51.074;17.004;2022-12-20T16:35:32;43.50;;;21.52;;
39750;SDS011;37579;51.074;17.004;2022-12-20T16:38:01;44.25;;;20.38;;
39750;SDS011;37579;51.074;17.004;2022-12-20T16:40:29;44.20;;;21.35;;
39750;SDS011;37579;51.074;17.004;2022-12-20T16:42:56;37.63;;;19.92;;
39750;SDS011;37579;51.074;17.004;2022-12-20T16:45:28;36.58;;;19.27;;